Time;durP1;ratioP1;P1;durP2;ratioP2;P2;SDS_P1;SDS_P2;PMS_P1;PMS_P2;Temp;Humidity;BMP_temperature;BMP_pressure;BME280_temperature;BME280_humidity;BME280_pressure;Samples;Min_cycle;Max_cycle;Signal;HPM_P1;HPM_P2
2023/07/09 00:00:56;;;;;;;7.55;3.90;;;;;;;19.05;98.89;101041.78;5147765;28;20026;-73
2023/07/09 00:03:26;;;;;;;9.52;4.30;;;;;;;19.21;96.39;101036.41;5169053;28;20077;-71
2023/07/09 00:05:57;;;;;;;11.13;4.30;;;;;;;19.27;96.50;101036.88;5171083;28;20476;-72
2023/07/09 00:08:30;;;;;;;7.30;3.83;;;;;;;19.25;96.25;101036.13;5169266;28;20034;-71
2023/07/09 00:11:00;;;;;;;7.10;3.88;;;;;;;18.95;97.91;101038.00;5168315;28;20080;-73
2023/07/09 00:13:30;;;;;;;7.88;4.13;;;;;;;18.88;98.18;101034.06;5164683;28;20027;-72
2023/07/09 00:16:10;;;;;;;8.27;4.28;;;;;;;18.92;99.46;101040.84;5160481;28;20027;-72
2023/07/09 00:18:40;;;;;;;8.63;4.70;;;;;;;18.88;100.00;101027.88;5162495;28;20038;-73
2023/07/09 00:21:11;;;;;;;9.80;4.55;;;;;;;18.85;99.15;101028.94;5151847;28;20737;-73
2023/07/09 00:23:41;;;;;;;8.05;4.68;;;;;;;18.77;100.00;101031.22;5142819;28;20030;-74
2023/07/09 00:26:13;;;;;;;10.40;4.55;;;;;;;18.76;99.24;101024.22;5146218;28;20038;-74
2023/07/09 00:28:44;;;;;;;8.35;4.50;;;;;;;18.70;99.49;101028.19;5143062;28;20462;-74
2023/07/09 00:31:16;;;;;;;6.68;4.03;;;;;;;18.94;98.89;101033.66;5154029;28;20417;-74
2023/07/09 00:33:48;;;;;;;6.18;3.97;;;;;;;18.96;97.63;101031.75;5142777;28;20026;-74
2023/07/09 00:36:25;;;;;;;7.70;3.67;;;;;;;18.87;96.62;101036.78;5164640;28;20472;-73
2023/07/09 00:38:59;;;;;;;6.43;3.95;;;;;;;18.67;97.55;101034.50;5147443;28;20076;-75
2023/07/09 00:41:33;;;;;;;6.72;3.72;;;;;;;18.66;98.78;101037.28;5158935;28;20023;-73
2023/07/09 00:44:28;;;;;;;7.10;3.78;;;;;;;18.67;97.37;101041.63;5160793;28;20019;-74
2023/07/09 00:47:01;;;;;;;6.35;3.75;;;;;;;18.50;99.73;101041.81;5142851;28;20441;-74
2023/07/09 00:49:46;;;;;;;6.72;3.92;;;;;;;18.46;100.00;101046.41;5165785;28;20100;-73
2023/07/09 00:52:40;;;;;;;9.90;4.25;;;;;;;18.33;100.00;101040.16;5142929;28;20041;-74
2023/07/09 00:55:16;;;;;;;10.20;3.65;;;;;;;18.56;98.86;101037.00;5126290;28;20052;-74
2023/07/09 00:57:56;;;;;;;11.63;5.18;;;;;;;18.63;96.78;101042.72;5143167;28;20042;-74
2023/07/09 01:00:46;;;;;;;11.05;4.38;;;;;;;18.57;97.54;101038.69;5162270;28;20603;-74
2023/07/09 01:03:29;;;;;;;8.32;3.90;;;;;;;18.54;99.12;101038.84;5157207;28;20034;-74
2023/07/09 01:05:59;;;;;;;8.73;3.95;;;;;;;18.69;96.38;101047.69;5155807;28;20026;-75
2023/07/09 01:08:32;;;;;;;5.97;3.65;;;;;;;18.52;96.36;101037.25;5145213;28;20038;-74
2023/07/09 01:11:03;;;;;;;7.15;3.90;;;;;;;18.39;98.80;101047.75;5157711;28;20408;-73
2023/07/09 01:13:35;;;;;;;6.80;3.35;;;;;;;18.09;99.87;101036.28;5159958;28;20026;-72
2023/07/09 01:16:05;;;;;;;6.45;3.42;;;;;;;17.78;100.00;101038.16;5146400;28;20048;-74
2023/07/09 01:18:36;;;;;;;8.15;3.25;;;;;;;17.93;100.00;101034.63;5162027;28;20046;-74
2023/07/09 01:21:16;;;;;;;10.32;3.47;;;;;;;17.94;100.00;101028.38;5157233;28;20035;-73
2023/07/09 01:23:49;;;;;;;10.23;3.88;;;;;;;17.79;100.00;101031.94;5161768;28;20303;-74
2023/07/09 01:26:26;;;;;;;5.68;3.45;;;;;;;17.70;100.00;101033.34;5161676;28;20019;-74
2023/07/09 01:28:57;;;;;;;7.30;2.95;;;;;;;18.03;100.00;101033.16;5158262;28;20117;-73
2023/07/09 01:31:27;;;;;;;13.65;3.45;;;;;;;17.91;100.00;101025.94;5160211;28;20121;-73
2023/07/09 01:33:58;;;;;;;5.63;3.47;;;;;;;17.98;100.00;101027.28;5159176;28;20038;-73
2023/07/09 01:36:28;;;;;;;11.23;3.53;;;;;;;17.98;100.00;101027.28;5163536;28;20026;-73
2023/07/09 01:38:58;;;;;;;5.82;3.30;;;;;;;17.89;100.00;101026.03;5162968;28;20029;-73
2023/07/09 01:41:30;;;;;;;6.78;3.45;;;;;;;18.07;100.00;101021.44;5149899;28;20110;-73
2023/07/09 01:44:00;;;;;;;6.78;3.65;;;;;;;18.17;98.85;101025.25;5162648;28;20030;-74
2023/07/09 01:46:30;;;;;;;5.40;3.63;;;;;;;18.25;99.19;101020.34;5164636;28;20551;-73
2023/07/09 01:49:01;;;;;;;5.63;3.38;;;;;;;18.11;98.62;101022.97;5159176;28;20034;-72
2023/07/09 01:51:31;;;;;;;6.28;3.35;;;;;;;18.19;98.83;101018.06;5165238;28;20026;-74
2023/07/09 01:54:02;;;;;;;5.30;3.38;;;;;;;18.10;98.68;101021.25;5165143;28;20030;-73
2023/07/09 01:56:32;;;;;;;7.15;3.20;;;;;;;17.91;99.95;101020.63;5150604;28;20058;-73
2023/07/09 01:59:02;;;;;;;4.88;3.00;;;;;;;17.92;100.00;101017.03;5165659;28;20408;-73
2023/07/09 02:01:33;;;;;;;4.80;3.30;;;;;;;17.82;100.00;101021.19;5147391;28;20033;-73
2023/07/09 02:04:04;;;;;;;4.90;3.17;;;;;;;17.92;99.78;101023.22;5165215;28;20018;-74
2023/07/09 02:06:34;;;;;;;6.18;3.30;;;;;;;18.06;98.57;101022.38;5164401;28;20114;-74
2023/07/09 02:09:04;;;;;;;5.88;3.30;;;;;;;17.97;97.66;101020.31;5161777;28;20328;-73
2023/07/09 02:11:35;;;;;;;6.88;3.38;;;;;;;18.02;97.93;101023.53;5165019;28;20468;-73
2023/07/09 02:14:05;;;;;;;11.23;3.00;;;;;;;17.94;98.25;101023.09;5162502;28;20081;-73
2023/07/09 02:16:35;;;;;;;6.55;3.50;;;;;;;17.87;99.23;101027.06;5164593;28;20046;-73
2023/07/09 02:19:05;;;;;;;5.20;2.90;;;;;;;17.81;100.00;101016.84;5164823;28;20610;-74
2023/07/09 02:21:36;;;;;;;4.28;3.05;;;;;;;17.90;97.70;101016.28;5131998;28;20057;-73
2023/07/09 02:24:06;;;;;;;7.38;3.20;;;;;;;17.83;97.91;101010.50;5146718;28;20081;-73
2023/07/09 02:26:37;;;;;;;5.32;2.97;;;;;;;17.86;96.55;101012.97;5165112;28;20023;-73
2023/07/09 02:29:07;;;;;;;8.98;3.53;;;;;;;17.62;98.74;101009.09;5165008;28;20030;-72
2023/07/09 02:31:38;;;;;;;6.45;3.13;;;;;;;17.90;96.70;101014.50;5162582;28;20049;-73
2023/07/09 02:34:08;;;;;;;5.88;2.90;;;;;;;17.82;95.84;101010.59;5165121;28;20038;-73
2023/07/09 02:36:42;;;;;;;7.05;3.33;;;;;;;17.73;97.83;101008.47;5147549;28;20105;-73
2023/07/09 02:39:14;;;;;;;6.38;3.15;;;;;;;17.74;96.94;101003.13;5163343;28;20453;-73
2023/07/09 02:41:45;;;;;;;7.82;3.40;;;;;;;17.63;97.36;101016.09;5148942;28;20444;-72
2023/07/09 02:44:16;;;;;;;4.68;3.15;;;;;;;17.60;98.30;101018.06;5163353;28;20031;-74
2023/07/09 02:46:47;;;;;;;8.00;3.00;;;;;;;17.41;98.85;101015.63;5149538;28;20026;-73
2023/07/09 02:49:17;;;;;;;7.80;3.25;;;;;;;17.38;100.00;101028.16;5164008;28;20046;-74
2023/07/09 02:51:47;;;;;;;14.27;3.55;;;;;;;17.36;98.88;101024.75;5150048;28;20537;-71
2023/07/09 02:56:51;;;;;;;9.63;3.70;;;;;;;17.42;100.00;101032.31;5116370;28;20425;-73
2023/07/09 02:59:22;;;;;;;5.53;3.25;;;;;;;17.55;99.34;101033.34;5101001;29;20027;-73
2023/07/09 03:01:52;;;;;;;5.85;3.05;;;;;;;17.74;98.08;101040.13;5100836;28;20023;-72
2023/07/09 03:04:23;;;;;;;5.88;3.28;;;;;;;17.58;98.41;101035.78;5112805;28;20156;-72
2023/07/09 03:06:54;;;;;;;5.80;2.83;;;;;;;17.54;97.49;101032.50;5100172;28;20408;-73
2023/07/09 03:09:24;;;;;;;6.25;3.45;;;;;;;17.41;98.24;101031.47;5098795;29;20035;-73
2023/07/09 03:11:55;;;;;;;4.95;3.22;;;;;;;17.48;97.95;101042.56;5099183;28;20517;-73
2023/07/09 03:14:25;;;;;;;5.40;3.10;;;;;;;17.53;98.36;101027.28;5114169;28;20061;-73
2023/07/09 03:16:56;;;;;;;5.80;3.38;;;;;;;17.45;98.43;101027.72;5100688;28;20461;-73
2023/07/09 03:19:26;;;;;;;7.00;3.40;;;;;;;17.47;98.81;101038.22;5100904;28;20035;-73
2023/07/09 03:21:56;;;;;;;7.55;3.03;;;;;;;17.55;99.84;101033.34;5118275;28;20126;-72
2023/07/09 03:24:27;;;;;;;4.50;2.95;;;;;;;17.46;98.47;101049.72;5116433;28;20114;-72
2023/07/09 03:26:57;;;;;;;4.60;3.20;;;;;;;17.62;99.36;101051.41;5119140;28;20461;-72
2023/07/09 03:29:27;;;;;;;4.82;3.10;;;;;;;17.53;98.18;101048.44;5101863;29;20035;-73
2023/07/09 03:31:58;;;;;;;6.50;2.92;;;;;;;17.71;98.85;101044.75;5099692;28;20042;-73
2023/07/09 03:34:28;;;;;;;7.35;3.35;;;;;;;17.99;94.43;101039.56;5100399;28;20498;-72
2023/07/09 03:36:58;;;;;;;5.78;3.08;;;;;;;17.83;96.26;101047.53;5100287;28;20023;-73
2023/07/09 03:39:29;;;;;;;6.25;2.85;;;;;;;17.85;96.76;101052.75;5100562;29;20034;-73
2023/07/09 03:41:59;;;;;;;6.13;3.03;;;;;;;17.85;94.83;101053.56;5099633;28;20027;-71
2023/07/09 03:44:29;;;;;;;6.35;2.65;;;;;;;17.81;95.76;101052.06;5100007;28;20024;-72
2023/07/09 03:47:00;;;;;;;5.35;3.20;;;;;;;17.41;98.26;101054.41;5096492;28;20026;-73
2023/07/09 03:49:30;;;;;;;6.43;2.90;;;;;;;17.38;97.19;101058.09;5100333;29;20031;-73
2023/07/09 03:52:01;;;;;;;8.48;3.03;;;;;;;17.44;99.00;101059.50;5115628;28;20019;-73
2023/07/09 03:54:31;;;;;;;9.88;3.47;;;;;;;17.33;98.63;101049.50;5100161;29;20031;-72
2023/07/09 03:57:02;;;;;;;7.25;3.00;;;;;;;17.19;99.68;101051.22;5099496;28;20082;-73
2023/07/09 03:59:32;;;;;;;7.40;3.20;;;;;;;17.22;100.00;101041.34;5099821;29;20405;-73
2023/07/09 04:02:03;;;;;;;7.53;3.25;;;;;;;17.17;100.00;101047.81;5099702;28;20373;-73
2023/07/09 04:04:33;;;;;;;14.63;3.50;;;;;;;16.95;100.00;101049.91;5100463;29;20031;-72
2023/07/09 04:07:03;;;;;;;12.15;3.60;;;;;;;17.18;100.00;101049.50;5095347;28;20023;-74
2023/07/09 04:09:34;;;;;;;6.55;3.00;;;;;;;17.43;100.00;101044.59;5107733;28;20035;-73
2023/07/09 04:12:05;;;;;;;10.40;3.15;;;;;;;17.23;100.00;101052.75;5098779;28;20019;-73
2023/07/09 04:14:35;;;;;;;6.97;3.30;;;;;;;17.53;100.00;101045.78;5099435;28;20028;-73
2023/07/09 04:17:06;;;;;;;5.55;3.20;;;;;;;17.54;100.00;101052.78;5098466;28;20505;-73
2023/07/09 04:19:36;;;;;;;10.13;3.47;;;;;;;17.86;99.65;101049.16;5100241;29;20031;-72
2023/07/09 04:22:10;;;;;;;7.45;4.15;;;;;;;18.03;97.31;101049.88;5098519;28;20041;-73
2023/07/09 04:24:40;;;;;;;10.00;3.25;;;;;;;18.09;95.64;101041.59;5098854;29;20250;-74
2023/07/09 04:27:11;;;;;;;7.70;3.60;;;;;;;18.18;96.36;101050.78;5098673;28;20350;-73
2023/07/09 04:29:41;;;;;;;7.38;3.00;;;;;;;18.07;96.64;101053.19;5099548;29;20086;-73
2023/07/09 04:32:14;;;;;;;6.35;3.30;;;;;;;18.40;95.66;101061.81;5098737;28;20042;-72
2023/07/09 04:34:44;;;;;;;6.38;3.10;;;;;;;18.56;90.42;101052.88;5100191;29;20027;-72
2023/07/09 04:37:16;;;;;;;6.55;3.70;;;;;;;18.89;89.10;101053.44;5100070;28;20449;-73
2023/07/09 04:39:47;;;;;;;9.57;4.20;;;;;;;19.00;90.91;101058.91;5099332;29;20058;-73
2023/07/09 04:42:17;;;;;;;5.88;3.25;;;;;;;19.40;88.87;101059.00;5103142;28;20126;-73
2023/07/09 04:44:48;;;;;;;4.93;3.45;;;;;;;19.99;85.16;101053.28;5099233;28;20019;-70
2023/07/09 04:47:18;;;;;;;6.20;3.30;;;;;;;20.63;82.41;101044.50;5098579;28;20102;-74
2023/07/09 04:49:48;;;;;;;7.32;3.40;;;;;;;21.45;81.35;101054.50;5098098;28;20612;-73
2023/07/09 04:52:19;;;;;;;6.05;3.10;;;;;;;23.52;73.63;101045.31;5107518;28;20042;-74
2023/07/09 04:54:50;;;;;;;4.95;2.88;;;;;;;24.25;70.78;101048.97;5101534;28;20484;-73
2023/07/09 04:57:20;;;;;;;4.93;2.88;;;;;;;25.84;68.98;101040.13;5119232;28;20030;-73
2023/07/09 04:59:51;;;;;;;6.45;2.60;;;;;;;27.32;64.14;101040.16;5101308;28;20023;-71
2023/07/09 05:02:21;;;;;;;7.47;3.30;;;;;;;27.09;62.34;101041.47;5117665;28;20098;-72
2023/07/09 05:04:52;;;;;;;4.60;2.30;;;;;;;27.79;60.66;101044.38;5102822;28;20062;-73
2023/07/09 05:07:22;;;;;;;5.50;2.60;;;;;;;27.93;61.35;101037.66;5100180;28;20551;-74
2023/07/09 05:09:53;;;;;;;3.80;2.40;;;;;;;27.54;62.40;101044.22;5119025;28;20027;-74
2023/07/09 05:12:26;;;;;;;5.60;2.65;;;;;;;27.52;62.37;101047.09;5106709;28;20454;-73
2023/07/09 05:14:57;;;;;;;4.43;2.40;;;;;;;29.66;57.05;101042.63;5122305;28;20263;-73
2023/07/09 05:17:27;;;;;;;5.35;2.38;;;;;;;29.98;57.72;101038.16;5119151;28;20081;-74
2023/07/09 05:19:58;;;;;;;4.57;2.50;;;;;;;28.58;59.22;101046.09;5103581;28;20537;-74
2023/07/09 05:22:28;;;;;;;4.70;2.17;;;;;;;29.30;57.35;101041.13;5103191;29;20477;-73
2023/07/09 05:24:58;;;;;;;4.65;2.70;;;;;;;29.95;56.77;101037.63;5102662;28;20059;-74
2023/07/09 05:27:29;;;;;;;4.55;2.58;;;;;;;29.74;57.40;101037.28;5103041;28;20019;-74
2023/07/09 05:30:00;;;;;;;7.55;2.78;;;;;;;29.84;56.71;101041.50;5115420;28;20031;-74
2023/07/09 05:32:30;;;;;;;5.20;2.35;;;;;;;29.20;59.50;101040.44;5101641;29;20051;-74
2023/07/09 05:35:01;;;;;;;4.47;2.47;;;;;;;30.20;56.60;101036.66;5101672;28;20465;-74
2023/07/09 05:37:31;;;;;;;5.35;2.67;;;;;;;29.97;57.57;101032.91;5101684;29;20110;-74
2023/07/09 05:40:04;;;;;;;6.70;2.65;;;;;;;29.16;60.86;101041.75;5102856;28;20023;-71
2023/07/09 05:42:34;;;;;;;3.88;2.50;;;;;;;29.77;58.22;101039.63;5101541;29;20121;-73
2023/07/09 05:45:05;;;;;;;5.28;2.90;;;;;;;30.59;56.95;101037.69;5117979;28;20114;-73
2023/07/09 05:47:36;;;;;;;5.18;2.80;;;;;;;29.51;57.56;101038.88;5103541;29;20023;-74
2023/07/09 05:50:07;;;;;;;4.05;2.83;;;;;;;30.03;55.70;101038.50;5116171;28;20066;-75
2023/07/09 05:52:37;;;;;;;5.43;2.90;;;;;;;30.38;55.08;101031.91;5102896;29;20035;-73
2023/07/09 05:55:08;;;;;;;4.65;2.58;;;;;;;29.92;55.86;101046.06;5104392;28;20043;-73
2023/07/09 05:57:38;;;;;;;5.63;2.70;;;;;;;28.30;62.19;101049.88;5103210;29;20139;-73
2023/07/09 06:00:09;;;;;;;5.30;2.60;;;;;;;28.33;62.32;101048.78;5101863;28;20086;-73
2023/07/09 06:02:40;;;;;;;6.50;2.78;;;;;;;27.95;61.53;101049.91;5096979;28;20351;-73
2023/07/09 06:05:11;;;;;;;4.03;2.60;;;;;;;27.68;61.99;101058.03;5118918;28;20031;-74
2023/07/09 06:07:41;;;;;;;3.78;2.58;;;;;;;26.68;65.12;101059.00;5100345;29;20082;-74
2023/07/09 06:10:11;;;;;;;4.47;2.72;;;;;;;26.99;65.52;101061.31;5115970;28;20039;-74
2023/07/09 06:12:42;;;;;;;4.80;2.60;;;;;;;26.73;65.25;101055.75;5104759;29;20410;-73
2023/07/09 06:15:12;;;;;;;4.93;2.70;;;;;;;27.02;64.56;101058.31;5099536;28;20556;-74
2023/07/09 06:17:42;;;;;;;3.92;2.90;;;;;;;26.16;65.05;101068.34;5100427;29;20026;-74
2023/07/09 06:20:13;;;;;;;5.95;3.53;;;;;;;25.81;68.24;101061.84;5098277;28;20037;-73
2023/07/09 06:22:43;;;;;;;4.32;3.20;;;;;;;26.37;67.67;101066.34;5099456;29;20113;-73
2023/07/09 06:25:13;;;;;;;6.72;2.80;;;;;;;27.09;65.27;101070.19;5097659;28;20027;-74
2023/07/09 06:27:44;;;;;;;4.38;2.95;;;;;;;27.77;62.74;101067.88;5096738;29;20500;-73
2023/07/09 06:30:14;;;;;;;4.55;2.72;;;;;;;27.48;65.37;101072.53;5100190;28;20218;-73
2023/07/09 06:32:45;;;;;;;5.20;2.95;;;;;;;26.97;66.00;101071.34;5102421;29;20086;-73
2023/07/09 06:35:15;;;;;;;5.18;2.85;;;;;;;27.75;65.87;101069.03;5102147;28;20034;-74
2023/07/09 06:37:46;;;;;;;5.90;2.97;;;;;;;27.10;66.34;101064.69;5121977;28;20517;-74
2023/07/09 06:40:16;;;;;;;4.28;3.00;;;;;;;27.86;67.58;101066.97;5099896;28;20089;-72
2023/07/09 06:42:47;;;;;;;5.15;2.90;;;;;;;28.06;66.92;101079.25;5103728;29;20284;-74
2023/07/09 06:45:17;;;;;;;4.85;2.60;;;;;;;27.97;67.88;101072.09;5114905;28;20462;-73
2023/07/09 06:47:49;;;;;;;5.63;2.80;;;;;;;28.67;66.23;101076.59;5099594;28;20162;-71
2023/07/09 06:50:19;;;;;;;6.07;2.83;;;;;;;29.34;62.73;101069.44;5098971;29;20117;-73
2023/07/09 06:52:49;;;;;;;4.15;3.00;;;;;;;29.27;62.03;101084.56;5099561;28;20143;-74
2023/07/09 06:55:20;;;;;;;4.70;2.97;;;;;;;29.41;60.83;101065.94;5113757;28;20070;-73
2023/07/09 06:57:50;;;;;;;4.07;2.60;;;;;;;29.81;62.34;101067.94;5100495;28;20302;-74
2023/07/09 07:00:21;;;;;;;5.20;2.92;;;;;;;29.51;63.90;101065.81;5110047;28;20300;-74
2023/07/09 07:02:51;;;;;;;4.22;2.75;;;;;;;29.76;63.67;101071.13;5097607;28;20405;-73
2023/07/09 07:05:21;;;;;;;4.38;2.90;;;;;;;29.35;61.44;101065.72;5096701;28;20030;-73
2023/07/09 07:07:53;;;;;;;5.97;2.97;;;;;;;29.82;60.40;101062.41;5098448;28;20540;-73
2023/07/09 07:10:23;;;;;;;5.82;3.28;;;;;;;29.87;58.35;101069.97;5105336;29;20027;-73
2023/07/09 07:12:54;;;;;;;3.95;2.95;;;;;;;30.01;57.89;101074.72;5097336;28;20081;-73
2023/07/09 07:15:24;;;;;;;6.32;3.00;;;;;;;29.94;59.95;101071.81;5098376;28;20038;-74
2023/07/09 07:17:55;;;;;;;4.75;2.58;;;;;;;30.48;56.36;101067.69;5099430;28;20023;-74
2023/07/09 07:20:25;;;;;;;4.13;2.83;;;;;;;30.29;58.00;101068.03;5101749;29;20086;-74
2023/07/09 07:22:56;;;;;;;5.22;3.00;;;;;;;30.39;56.91;101060.63;5120191;28;20031;-73
2023/07/09 07:25:27;;;;;;;7.63;3.08;;;;;;;30.93;57.52;101063.41;5104375;29;20078;-74
2023/07/09 07:27:57;;;;;;;4.32;2.78;;;;;;;30.99;57.52;101060.88;5101101;28;20031;-73
2023/07/09 07:30:28;;;;;;;4.75;3.00;;;;;;;31.20;55.85;101061.16;5104045;28;20129;-74
2023/07/09 07:32:58;;;;;;;4.72;3.03;;;;;;;31.03;54.20;101059.50;5100289;28;20031;-73
2023/07/09 07:35:29;;;;;;;5.32;2.75;;;;;;;30.84;57.41;101062.59;5119310;28;20031;-74
2023/07/09 07:37:59;;;;;;;4.50;2.78;;;;;;;31.51;55.08;101064.75;5101512;28;20749;-74
2023/07/09 07:40:30;;;;;;;6.38;3.10;;;;;;;31.77;53.13;101065.31;5120181;28;20034;-74
2023/07/09 07:43:00;;;;;;;3.90;2.80;;;;;;;31.22;55.35;101064.53;5098823;28;20544;-74
2023/07/09 07:45:30;;;;;;;5.67;2.80;;;;;;;31.30;55.62;101075.31;5110611;28;20036;-73
2023/07/09 07:48:01;;;;;;;5.15;3.15;;;;;;;30.62;57.02;101064.34;5101395;28;20118;-73
2023/07/09 07:50:31;;;;;;;4.03;2.67;;;;;;;31.79;56.35;101065.97;5095558;29;20544;-73
2023/07/09 07:53:02;;;;;;;4.55;2.70;;;;;;;32.27;58.76;101068.38;5085526;28;20500;-69
2023/07/09 07:55:32;;;;;;;4.00;2.90;;;;;;;31.55;57.53;101065.25;5088243;28;20031;-71
2023/07/09 07:58:03;;;;;;;4.75;3.00;;;;;;;33.03;53.84;101066.28;5083789;28;20030;-71
2023/07/09 08:00:34;;;;;;;5.10;3.00;;;;;;;33.37;54.45;101053.88;5101305;28;20126;-72
2023/07/09 08:03:05;;;;;;;4.40;2.60;;;;;;;33.48;52.33;101050.66;5082981;28;20027;-73
2023/07/09 08:05:35;;;;;;;3.55;2.60;;;;;;;33.97;53.14;101056.28;5102558;28;20436;-71
2023/07/09 08:08:05;;;;;;;4.63;2.58;;;;;;;33.92;51.74;101048.72;5088859;28;20026;-72
2023/07/09 08:10:36;;;;;;;4.10;2.60;;;;;;;34.02;51.86;101048.38;5085968;28;20342;-72
2023/07/09 08:13:06;;;;;;;3.80;2.77;;;;;;;34.69;52.12;101053.22;5098957;28;20020;-72
2023/07/09 08:15:37;;;;;;;3.33;2.40;;;;;;;34.48;53.06;101049.69;5101544;28;20350;-71
2023/07/09 08:18:08;;;;;;;8.20;2.65;;;;;;;34.31;51.80;101045.56;5098893;28;20031;-70
2023/07/09 08:20:43;;;;;;;4.43;2.70;;;;;;;33.89;51.55;101053.66;5099274;28;20071;-72
2023/07/09 08:23:13;;;;;;;6.82;3.22;;;;;;;33.33;52.10;101040.88;5096654;28;20473;-69
2023/07/09 08:25:44;;;;;;;4.88;2.55;;;;;;;34.26;52.58;101045.28;5100245;29;20094;-71
2023/07/09 08:28:14;;;;;;;4.05;2.75;;;;;;;35.22;51.66;101044.34;5115493;28;20031;-70
2023/07/09 08:30:45;;;;;;;4.45;2.65;;;;;;;35.61;51.05;101042.66;5097938;29;20532;-73
2023/07/09 08:33:15;;;;;;;3.35;2.30;;;;;;;36.09;49.49;101049.72;5110426;28;20022;-71
2023/07/09 08:35:48;;;;;;;5.50;2.20;;;;;;;35.05;49.67;101046.56;5098652;29;20031;-72
2023/07/09 08:38:20;;;;;;;4.18;3.05;;;;;;;36.66;49.00;101047.25;5112866;28;20027;-72
2023/07/09 08:40:59;;;;;;;10.63;2.40;;;;;;;36.21;49.92;101039.91;5097069;28;20440;-71
2023/07/09 08:43:54;;;;;;;3.20;2.53;;;;;;;36.30;48.25;101041.38;5115522;28;20765;-72
2023/07/09 08:46:37;;;;;;;4.80;3.08;;;;;;;36.67;49.43;101043.47;5091856;29;20031;-72
2023/07/09 08:49:36;;;;;;;4.22;2.28;;;;;;;36.66;48.01;101041.78;5094918;28;20271;-69
2023/07/09 08:52:17;;;;;;;4.97;2.90;;;;;;;36.64;48.76;101043.91;5092975;28;20104;-72
2023/07/09 08:57:31;;;;;;;2.88;2.30;;;;;;;38.03;46.70;101031.25;5128088;28;20074;-73
2023/07/09 09:00:12;;;;;;;3.42;2.35;;;;;;;37.50;48.18;101035.31;5115649;28;20481;-71
2023/07/09 09:02:56;;;;;;;5.00;2.53;;;;;;;38.67;47.25;101023.56;5136729;28;20045;-74
2023/07/09 09:05:27;;;;;;;3.83;2.30;;;;;;;37.65;48.38;101022.22;5116220;28;20037;-72
2023/07/09 09:08:11;;;;;;;3.85;2.45;;;;;;;37.15;49.64;101024.94;5127377;28;20444;-73
2023/07/09 09:10:59;;;;;;;3.92;2.25;;;;;;;37.35;48.13;101030.09;5143538;28;20034;-73
2023/07/09 09:13:30;;;;;;;5.50;2.60;;;;;;;37.17;50.75;101018.22;5126918;28;20121;-73
2023/07/09 09:16:05;;;;;;;4.53;2.60;;;;;;;36.75;52.19;101024.19;5128313;28;20695;-73
2023/07/09 09:18:42;;;;;;;4.75;3.13;;;;;;;36.41;51.35;101026.28;5131756;28;20053;-73
2023/07/09 09:21:26;;;;;;;4.40;2.80;;;;;;;36.78;49.80;101018.28;5126988;28;20425;-72
2023/07/09 09:24:01;;;;;;;4.82;2.70;;;;;;;37.03;50.48;101011.16;5121956;28;20034;-73
2023/07/09 09:26:34;;;;;;;3.42;2.70;;;;;;;37.68;49.57;101019.91;5125361;28;20035;-71
2023/07/09 09:29:11;;;;;;;4.00;2.53;;;;;;;37.36;50.71;101011.81;5119916;28;20046;-73
2023/07/09 09:31:55;;;;;;;3.85;2.40;;;;;;;36.61;52.44;101025.25;5142750;28;20022;-73
2023/07/09 09:34:29;;;;;;;5.32;2.95;;;;;;;36.92;50.53;101009.03;5122788;28;20057;-73
2023/07/09 09:37:00;;;;;;;3.40;2.50;;;;;;;36.53;50.08;101014.53;5143312;28;20030;-72
2023/07/09 09:39:30;;;;;;;3.28;2.30;;;;;;;37.04;49.51;101014.69;5118178;28;20043;-73
2023/07/09 09:42:01;;;;;;;3.42;2.35;;;;;;;37.02;49.36;101008.63;5123012;28;20080;-73
2023/07/09 09:44:32;;;;;;;6.63;2.70;;;;;;;37.65;48.88;101008.56;5142597;28;20212;-73
2023/07/09 09:47:03;;;;;;;3.78;2.72;;;;;;;37.90;49.47;101004.03;5115623;28;20286;-71
2023/07/09 09:49:44;;;;;;;3.92;2.60;;;;;;;36.38;49.80;101010.34;5138896;28;20047;-73
2023/07/09 09:52:18;;;;;;;3.70;2.30;;;;;;;36.66;51.00;101005.53;5138156;28;20031;-72
2023/07/09 09:54:55;;;;;;;9.63;2.70;;;;;;;37.10;48.03;101011.94;5142707;28;20120;-71
2023/07/09 09:57:25;;;;;;;3.22;2.20;;;;;;;38.45;45.90;101003.19;5139617;28;20343;-73
2023/07/09 09:59:55;;;;;;;4.17;2.90;;;;;;;37.07;49.95;101012.38;5140461;28;20762;-73
2023/07/09 10:02:25;;;;;;;6.33;2.53;;;;;;;37.43;49.92;101013.47;5140095;28;20027;-73
2023/07/09 10:04:56;;;;;;;3.67;2.40;;;;;;;37.19;49.80;101010.63;5138068;28;20051;-72
2023/07/09 10:07:42;;;;;;;3.53;2.47;;;;;;;36.72;49.37;101013.72;5144364;28;20088;-72
2023/07/09 10:10:19;;;;;;;3.90;2.72;;;;;;;37.25;49.96;101010.63;5145202;28;20069;-72
2023/07/09 10:12:53;;;;;;;5.22;2.40;;;;;;;37.80;50.38;101003.66;5145103;28;20481;-72
2023/07/09 10:15:41;;;;;;;3.17;2.50;;;;;;;37.11;53.31;101018.22;5145657;28;20038;-71
2023/07/09 10:18:46;;;;;;;4.40;2.53;;;;;;;36.45;50.70;101013.94;5145221;28;20018;-71
2023/07/09 10:21:43;;;;;;;4.32;2.50;;;;;;;36.19;49.20;101003.88;5130950;28;20030;-72
2023/07/09 10:24:38;;;;;;;5.28;3.20;;;;;;;35.67;52.19;101005.66;5132136;28;20089;-71
2023/07/09 10:27:18;;;;;;;3.47;2.55;;;;;;;35.34;51.16;101001.94;5125563;28;20030;-70
2023/07/09 10:30:13;;;;;;;6.47;2.85;;;;;;;35.07;50.29;100992.81;5132079;28;21442;-70
2023/07/09 10:32:52;;;;;;;4.32;2.88;;;;;;;34.40;50.99;101003.66;5138379;28;20022;-71
2023/07/09 10:35:32;;;;;;;4.53;3.15;;;;;;;34.72;50.47;100998.47;5135239;28;20460;-70
2023/07/09 10:38:22;;;;;;;4.70;2.72;;;;;;;33.92;47.57;100999.88;5136082;28;20073;-71
2023/07/09 10:40:57;;;;;;;4.82;2.90;;;;;;;33.98;48.32;100988.22;5137945;28;20043;-72
2023/07/09 10:43:41;;;;;;;;;;;;;;;34.25;48.82;100992.03;5140047;28;20420;-71
2023/07/09 10:46:16;;;;;;;3.78;2.75;;;;;;;34.15;47.38;100999.66;5113458;28;19918;-71
2023/07/09 10:48:50;;;;;;;6.22;2.72;;;;;;;33.91;45.96;100994.63;5134832;28;20027;-71
2023/07/09 10:51:27;;;;;;;6.03;3.00;;;;;;;33.38;49.06;100990.50;5135542;28;20396;-70
2023/07/09 10:54:16;;;;;;;6.07;2.83;;;;;;;33.42;48.55;100993.63;5135219;28;20022;-72
2023/07/09 10:56:55;;;;;;;5.95;3.20;;;;;;;33.66;50.41;101001.44;5145008;28;20491;-72
2023/07/09 10:59:31;;;;;;;4.13;2.78;;;;;;;33.35;49.63;100992.72;5145054;28;20034;-72
2023/07/09 11:02:21;;;;;;;4.18;2.70;;;;;;;33.68;48.08;100992.06;5146652;28;20030;-72
2023/07/09 11:05:01;;;;;;;5.30;3.10;;;;;;;33.57;50.60;100983.59;5141787;28;20034;-72
2023/07/09 11:07:36;;;;;;;4.50;3.00;;;;;;;33.13;47.77;100988.25;5125832;28;20884;-72
2023/07/09 11:10:48;;;;;;;5.55;3.00;;;;;;;33.35;49.96;100973.75;5111677;28;20340;-72
2023/07/09 11:13:35;;;;;;;4.65;2.60;;;;;;;33.64;48.86;100979.09;5126466;28;20043;-72
2023/07/09 11:16:08;;;;;;;4.38;2.65;;;;;;;33.59;48.50;100985.09;5127052;28;20519;-73
2023/07/09 11:18:38;;;;;;;4.50;2.60;;;;;;;33.75;45.75;100981.31;5122333;28;20619;-72
2023/07/09 11:21:17;;;;;;;5.78;2.90;;;;;;;33.90;46.51;100984.78;5108003;28;20333;-70
2023/07/09 11:23:53;;;;;;;4.05;2.63;;;;;;;33.61;48.15;100979.44;5121930;28;20137;-71
2023/07/09 11:26:33;;;;;;;6.38;2.88;;;;;;;33.54;47.42;100976.69;5125473;28;20073;-72
2023/07/09 11:29:06;;;;;;;4.63;2.72;;;;;;;33.71;45.61;100975.44;5118531;28;20047;-71
2023/07/09 11:31:44;;;;;;;5.57;3.25;;;;;;;33.21;47.82;100971.91;5139910;28;20385;-72
2023/07/09 11:34:15;;;;;;;4.55;2.80;;;;;;;33.52;47.27;100972.47;5124227;28;20275;-71
2023/07/09 11:36:57;;;;;;;4.38;2.42;;;;;;;33.43;47.32;100969.06;5148330;28;20481;-72
2023/07/09 11:39:43;;;;;;;4.97;2.85;;;;;;;33.44;50.84;100965.31;5122838;28;20038;-72
2023/07/09 11:42:33;;;;;;;4.65;2.75;;;;;;;33.45;47.38;100969.69;5122014;28;20039;-71
2023/07/09 11:45:13;;;;;;;6.30;2.85;;;;;;;33.51;48.72;100962.66;5134693;28;20039;-72
2023/07/09 11:47:52;;;;;;;3.88;2.50;;;;;;;33.49;49.86;100965.56;5106297;28;20035;-72
2023/07/09 11:50:25;;;;;;;5.50;2.72;;;;;;;33.42;51.49;100966.53;5133861;28;20500;-72
2023/07/09 11:53:03;;;;;;;4.15;2.80;;;;;;;33.43;47.71;100955.50;5144312;28;20069;-72
2023/07/09 11:55:40;;;;;;;4.85;2.80;;;;;;;33.62;49.66;100957.56;5134922;28;20062;-70
2023/07/09 11:58:18;;;;;;;4.15;2.47;;;;;;;33.35;50.11;100957.47;5135506;28;20026;-70